Nearby METAR Reports

YMHB - Hobart/Tasmania, Australia
Distance from Franklin: NE 55km
Updated: 14/08/2018 18:30
Mostly cloudy
Mostly cloudy
 Wind from N
Wind: N 30 km/h
Temperature: 14°C
Dew Point: 3°C
Humidity: 48%
Barometer: 998 hPa
Clouds: Mostly cloudy
Visibility: 10 km
Cloud details: Few Clouds 1524 m
Mostly cloudy 8534 m
2018/08/14 08:30 YMHB 140830Z 35016KT 9999 FEW050 BKN280 14/03 Q0998 RF00.0/000.2
YMLT - Launceston Airpo, Australia
Distance from Franklin: N 179km
Updated: 14/08/2018 18:30
Overcast
Overcast
 Wind from NNW
Wind: NNW 43 km/h
Temperature: 11°C
Dew Point: 8°C
Humidity: 82%
Barometer: 1005 hPa
Clouds: Overcast
Visibility: 10 km
Cloud details: Mostly cloudy 549 m
Mostly cloudy 701 m
Overcast 853 m
2018/08/14 08:30 YMLT 140830Z AUTO 34023KT 9999 // BKN018 BKN023 OVC028 11/08 Q1005
 
YMAV - Avalon Airport, Australia
Distance from Franklin: NNW 601km
Updated: 14/08/2018 18:30
Clear
Clear
 Wind from N
Wind: N 17 km/h
Temperature: 13°C
Dew Point: 6°C
Humidity: 63%
Barometer: 1011 hPa
Clouds: Clear
Visibility: 10 km
2018/08/14 08:30 YMAV 140830Z AUTO 01009KT 9999 // NCD 13/06 Q1011 RF00.0/000.0
YMML - Melbourne Intl A, Australia
Distance from Franklin: NNW 631km
Updated: 14/08/2018 18:48
Clear
Clear
 Wind from N
Wind: N 54 km/h, Gust: 72 km/h
Temperature: 14°C
Dew Point: 5°C
Humidity: 55%
Barometer: 1012 hPa
Summary: Clear
Visibility: greater than 10 km
2018/08/14 08:48 YMML 140848Z 01029G39KT CAVOK 14/05 Q1012